sensor_id;sensor_type;location;lat;lon;timestamp;P1;durP1;ratioP1;P2;durP2;ratioP2
26951;SDS011;14507;52.418;13.398;2023-06-10T00:02:00;10.15;;;4.18;;
26951;SDS011;14507;52.418;13.398;2023-06-10T00:04:26;13.57;;;4.78;;
26951;SDS011;14507;52.418;13.398;2023-06-10T00:06:52;10.68;;;4.53;;
26951;SDS011;14507;52.418;13.398;2023-06-10T00:09:18;16.27;;;5.13;;
26951;SDS011;14507;52.418;13.398;2023-06-10T00:11:46;10.75;;;4.72;;
26951;SDS011;14507;52.418;13.398;2023-06-10T00:14:12;9.77;;;4.60;;
26951;SDS011;14507;52.418;13.398;2023-06-10T00:16:38;15.98;;;4.70;;
26951;SDS011;14507;52.418;13.398;2023-06-10T00:19:04;13.98;;;4.35;;
26951;SDS011;14507;52.418;13.398;2023-06-10T00:21:30;10.13;;;4.65;;
26951;SDS011;14507;52.418;13.398;2023-06-10T00:24:03;11.57;;;4.18;;
26951;SDS011;14507;52.418;13.398;2023-06-10T00:28:56;11.50;;;4.65;;
26951;SDS011;14507;52.418;13.398;2023-06-10T00:31:21;17.15;;;5.20;;
26951;SDS011;14507;52.418;13.398;2023-06-10T00:33:47;16.38;;;4.97;;
26951;SDS011;14507;52.418;13.398;2023-06-10T00:36:12;11.05;;;4.50;;
26951;SDS011;14507;52.418;13.398;2023-06-10T00:38:38;13.15;;;4.60;;
26951;SDS011;14507;52.418;13.398;2023-06-10T00:41:05;12.98;;;4.72;;
26951;SDS011;14507;52.418;13.398;2023-06-10T00:43:31;17.75;;;5.13;;
26951;SDS011;14507;52.418;13.398;2023-06-10T00:45:57;13.15;;;4.47;;
26951;SDS011;14507;52.418;13.398;2023-06-10T00:48:23;13.48;;;4.93;;
26951;SDS011;14507;52.418;13.398;2023-06-10T00:50:49;11.15;;;4.40;;
26951;SDS011;14507;52.418;13.398;2023-06-10T00:53:15;11.20;;;4.55;;
26951;SDS011;14507;52.418;13.398;2023-06-10T00:55:41;8.65;;;4.63;;
26951;SDS011;14507;52.418;13.398;2023-06-10T00:58:07;14.77;;;4.50;;
26951;SDS011;14507;52.418;13.398;2023-06-10T01:00:34;11.68;;;4.65;;
26951;SDS011;14507;52.418;13.398;2023-06-10T01:02:59;19.42;;;5.10;;
26951;SDS011;14507;52.418;13.398;2023-06-10T01:05:25;12.45;;;4.40;;
26951;SDS011;14507;52.418;13.398;2023-06-10T01:07:56;10.85;;;4.32;;
26951;SDS011;14507;52.418;13.398;2023-06-10T01:13:01;10.30;;;4.50;;
26951;SDS011;14507;52.418;13.398;2023-06-10T01:15:31;12.57;;;4.53;;
26951;SDS011;14507;52.418;13.398;2023-06-10T01:18:02;14.82;;;4.90;;
26951;SDS011;14507;52.418;13.398;2023-06-10T01:20:35;13.48;;;4.82;;
26951;SDS011;14507;52.418;13.398;2023-06-10T01:23:05;9.98;;;4.55;;
26951;SDS011;14507;52.418;13.398;2023-06-10T01:25:31;11.55;;;4.97;;
26951;SDS011;14507;52.418;13.398;2023-06-10T01:33:42;13.32;;;4.47;;
26951;SDS011;14507;52.418;13.398;2023-06-10T01:36:11;11.20;;;4.32;;
26951;SDS011;14507;52.418;13.398;2023-06-10T01:38:42;13.85;;;4.90;;
26951;SDS011;14507;52.418;13.398;2023-06-10T01:41:09;10.98;;;4.70;;
26951;SDS011;14507;52.418;13.398;2023-06-10T01:43:37;13.00;;;4.80;;
26951;SDS011;14507;52.418;13.398;2023-06-10T01:46:04;12.13;;;4.82;;
26951;SDS011;14507;52.418;13.398;2023-06-10T01:48:30;17.02;;;4.88;;
26951;SDS011;14507;52.418;13.398;2023-06-10T01:50:56;16.17;;;5.60;;
26951;SDS011;14507;52.418;13.398;2023-06-10T01:53:22;10.77;;;4.82;;
26951;SDS011;14507;52.418;13.398;2023-06-10T01:55:48;11.57;;;5.20;;
26951;SDS011;14507;52.418;13.398;2023-06-10T01:58:13;11.23;;;4.30;;
26951;SDS011;14507;52.418;13.398;2023-06-10T02:00:39;14.15;;;4.60;;
26951;SDS011;14507;52.418;13.398;2023-06-10T02:03:05;13.77;;;4.80;;
26951;SDS011;14507;52.418;13.398;2023-06-10T02:05:30;12.98;;;4.68;;
26951;SDS011;14507;52.418;13.398;2023-06-10T02:07:56;13.73;;;4.95;;
26951;SDS011;14507;52.418;13.398;2023-06-10T02:10:22;15.00;;;4.90;;
26951;SDS011;14507;52.418;13.398;2023-06-10T02:12:48;10.77;;;4.65;;
26951;SDS011;14507;52.418;13.398;2023-06-10T02:15:14;19.48;;;4.95;;
26951;SDS011;14507;52.418;13.398;2023-06-10T02:17:39;10.18;;;4.55;;
26951;SDS011;14507;52.418;13.398;2023-06-10T02:20:05;8.68;;;4.60;;
26951;SDS011;14507;52.418;13.398;2023-06-10T02:22:32;11.10;;;4.90;;
26951;SDS011;14507;52.418;13.398;2023-06-10T02:24:58;13.57;;;4.80;;
26951;SDS011;14507;52.418;13.398;2023-06-10T02:27:24;11.70;;;5.13;;
26951;SDS011;14507;52.418;13.398;2023-06-10T02:29:50;11.57;;;4.60;;
26951;SDS011;14507;52.418;13.398;2023-06-10T02:32:15;12.07;;;4.40;;
26951;SDS011;14507;52.418;13.398;2023-06-10T02:34:41;11.18;;;4.78;;
26951;SDS011;14507;52.418;13.398;2023-06-10T02:37:07;16.55;;;5.63;;
26951;SDS011;14507;52.418;13.398;2023-06-10T02:39:33;14.75;;;4.82;;
26951;SDS011;14507;52.418;13.398;2023-06-10T02:41:59;19.80;;;5.22;;
26951;SDS011;14507;52.418;13.398;2023-06-10T02:44:25;9.57;;;4.53;;
26951;SDS011;14507;52.418;13.398;2023-06-10T02:46:51;13.25;;;4.60;;
26951;SDS011;14507;52.418;13.398;2023-06-10T02:49:16;18.35;;;5.10;;
26951;SDS011;14507;52.418;13.398;2023-06-10T02:51:42;13.95;;;5.00;;
26951;SDS011;14507;52.418;13.398;2023-06-10T02:54:07;15.13;;;4.80;;
26951;SDS011;14507;52.418;13.398;2023-06-10T02:56:33;11.88;;;5.00;;
26951;SDS011;14507;52.418;13.398;2023-06-10T02:58:59;13.38;;;5.50;;
26951;SDS011;14507;52.418;13.398;2023-06-10T03:01:25;14.98;;;5.32;;
26951;SDS011;14507;52.418;13.398;2023-06-10T03:03:51;14.10;;;5.20;;
26951;SDS011;14507;52.418;13.398;2023-06-10T03:06:17;14.32;;;5.55;;
26951;SDS011;14507;52.418;13.398;2023-06-10T03:08:43;12.73;;;5.57;;
26951;SDS011;14507;52.418;13.398;2023-06-10T03:11:10;16.77;;;6.35;;
26951;SDS011;14507;52.418;13.398;2023-06-10T03:13:36;11.98;;;5.13;;
26951;SDS011;14507;52.418;13.398;2023-06-10T03:16:03;17.52;;;5.30;;
26951;SDS011;14507;52.418;13.398;2023-06-10T03:18:29;13.57;;;5.40;;
26951;SDS011;14507;52.418;13.398;2023-06-10T03:20:55;12.27;;;5.70;;
26951;SDS011;14507;52.418;13.398;2023-06-10T03:23:21;16.20;;;5.72;;
26951;SDS011;14507;52.418;13.398;2023-06-10T03:25:47;15.65;;;5.45;;
26951;SDS011;14507;52.418;13.398;2023-06-10T03:28:13;15.20;;;5.57;;
26951;SDS011;14507;52.418;13.398;2023-06-10T03:30:39;14.88;;;5.93;;
26951;SDS011;14507;52.418;13.398;2023-06-10T03:33:05;17.00;;;5.40;;
26951;SDS011;14507;52.418;13.398;2023-06-10T03:35:30;15.73;;;5.80;;
26951;SDS011;14507;52.418;13.398;2023-06-10T03:37:59;13.35;;;5.38;;
26951;SDS011;14507;52.418;13.398;2023-06-10T03:40:25;15.68;;;5.20;;
26951;SDS011;14507;52.418;13.398;2023-06-10T03:42:51;10.80;;;5.07;;
26951;SDS011;14507;52.418;13.398;2023-06-10T03:45:16;12.35;;;5.10;;
26951;SDS011;14507;52.418;13.398;2023-06-10T03:47:42;16.75;;;5.97;;
26951;SDS011;14507;52.418;13.398;2023-06-10T03:50:09;16.02;;;5.90;;
26951;SDS011;14507;52.418;13.398;2023-06-10T03:52:35;16.50;;;5.47;;
26951;SDS011;14507;52.418;13.398;2023-06-10T03:55:02;12.82;;;5.85;;
26951;SDS011;14507;52.418;13.398;2023-06-10T03:57:28;12.75;;;5.63;;
26951;SDS011;14507;52.418;13.398;2023-06-10T03:59:54;16.05;;;5.43;;
26951;SDS011;14507;52.418;13.398;2023-06-10T04:02:21;14.15;;;5.75;;
26951;SDS011;14507;52.418;13.398;2023-06-10T04:04:47;14.13;;;6.13;;
26951;SDS011;14507;52.418;13.398;2023-06-10T04:07:13;14.73;;;5.93;;
26951;SDS011;14507;52.418;13.398;2023-06-10T04:09:39;11.30;;;5.20;;
26951;SDS011;14507;52.418;13.398;2023-06-10T04:12:05;16.13;;;5.07;;
26951;SDS011;14507;52.418;13.398;2023-06-10T04:14:33;11.38;;;6.15;;
26951;SDS011;14507;52.418;13.398;2023-06-10T04:17:01;12.93;;;5.50;;
26951;SDS011;14507;52.418;13.398;2023-06-10T04:19:27;13.68;;;5.53;;
26951;SDS011;14507;52.418;13.398;2023-06-10T04:21:53;12.73;;;5.43;;
26951;SDS011;14507;52.418;13.398;2023-06-10T04:24:19;14.32;;;5.68;;
26951;SDS011;14507;52.418;13.398;2023-06-10T04:26:44;13.02;;;6.03;;
26951;SDS011;14507;52.418;13.398;2023-06-10T04:29:11;17.55;;;5.47;;
26951;SDS011;14507;52.418;13.398;2023-06-10T04:31:36;13.85;;;5.57;;
26951;SDS011;14507;52.418;13.398;2023-06-10T04:34:02;14.82;;;5.93;;
26951;SDS011;14507;52.418;13.398;2023-06-10T04:36:27;14.73;;;5.43;;
26951;SDS011;14507;52.418;13.398;2023-06-10T04:38:55;17.48;;;6.28;;
26951;SDS011;14507;52.418;13.398;2023-06-10T04:41:20;15.50;;;6.38;;
26951;SDS011;14507;52.418;13.398;2023-06-10T04:43:47;13.10;;;6.10;;
26951;SDS011;14507;52.418;13.398;2023-06-10T04:46:13;12.75;;;5.50;;
26951;SDS011;14507;52.418;13.398;2023-06-10T04:48:38;13.55;;;5.25;;
26951;SDS011;14507;52.418;13.398;2023-06-10T04:51:04;13.73;;;6.28;;
26951;SDS011;14507;52.418;13.398;2023-06-10T04:53:30;18.05;;;6.45;;
26951;SDS011;14507;52.418;13.398;2023-06-10T04:55:56;15.77;;;5.35;;
26951;SDS011;14507;52.418;13.398;2023-06-10T04:58:22;14.23;;;5.90;;
26951;SDS011;14507;52.418;13.398;2023-06-10T05:00:48;16.65;;;5.85;;
26951;SDS011;14507;52.418;13.398;2023-06-10T05:03:14;14.02;;;6.13;;
26951;SDS011;14507;52.418;13.398;2023-06-10T05:05:40;11.90;;;5.70;;
26951;SDS011;14507;52.418;13.398;2023-06-10T05:08:05;13.45;;;5.93;;
26951;SDS011;14507;52.418;13.398;2023-06-10T05:10:31;18.05;;;6.82;;
26951;SDS011;14507;52.418;13.398;2023-06-10T05:12:57;17.10;;;6.63;;
26951;SDS011;14507;52.418;13.398;2023-06-10T05:15:23;14.27;;;5.75;;
26951;SDS011;14507;52.418;13.398;2023-06-10T05:17:49;14.13;;;6.35;;
26951;SDS011;14507;52.418;13.398;2023-06-10T05:20:15;13.68;;;5.68;;
26951;SDS011;14507;52.418;13.398;2023-06-10T05:22:41;15.85;;;6.13;;
26951;SDS011;14507;52.418;13.398;2023-06-10T05:25:07;15.70;;;5.80;;
26951;SDS011;14507;52.418;13.398;2023-06-10T05:27:33;15.88;;;6.05;;
26951;SDS011;14507;52.418;13.398;2023-06-10T05:29:58;18.17;;;6.65;;
26951;SDS011;14507;52.418;13.398;2023-06-10T05:32:24;17.33;;;6.38;;
26951;SDS011;14507;52.418;13.398;2023-06-10T05:34:50;13.90;;;6.00;;
26951;SDS011;14507;52.418;13.398;2023-06-10T05:37:15;10.27;;;5.57;;
26951;SDS011;14507;52.418;13.398;2023-06-10T05:39:41;17.65;;;6.43;;
26951;SDS011;14507;52.418;13.398;2023-06-10T05:42:07;14.23;;;6.30;;
26951;SDS011;14507;52.418;13.398;2023-06-10T05:44:33;18.73;;;6.75;;
26951;SDS011;14507;52.418;13.398;2023-06-10T05:46:59;12.40;;;5.90;;
26951;SDS011;14507;52.418;13.398;2023-06-10T05:49:24;17.70;;;5.93;;
26951;SDS011;14507;52.418;13.398;2023-06-10T05:51:50;13.32;;;5.75;;
26951;SDS011;14507;52.418;13.398;2023-06-10T05:54:17;16.33;;;6.63;;
26951;SDS011;14507;52.418;13.398;2023-06-10T05:56:43;16.42;;;6.28;;
26951;SDS011;14507;52.418;13.398;2023-06-10T05:59:09;11.63;;;5.40;;
26951;SDS011;14507;52.418;13.398;2023-06-10T06:01:35;13.38;;;6.00;;
26951;SDS011;14507;52.418;13.398;2023-06-10T06:04:00;16.23;;;5.70;;
26951;SDS011;14507;52.418;13.398;2023-06-10T06:06:26;27.15;;;6.43;;
26951;SDS011;14507;52.418;13.398;2023-06-10T06:08:51;14.20;;;6.25;;
26951;SDS011;14507;52.418;13.398;2023-06-10T06:11:17;18.08;;;7.00;;
26951;SDS011;14507;52.418;13.398;2023-06-10T06:13:43;11.20;;;5.60;;
26951;SDS011;14507;52.418;13.398;2023-06-10T06:16:08;14.63;;;6.55;;
26951;SDS011;14507;52.418;13.398;2023-06-10T06:18:34;11.90;;;5.57;;
26951;SDS011;14507;52.418;13.398;2023-06-10T06:21:00;15.68;;;5.68;;
26951;SDS011;14507;52.418;13.398;2023-06-10T06:23:25;10.75;;;4.90;;
26951;SDS011;14507;52.418;13.398;2023-06-10T06:25:51;9.77;;;5.32;;
26951;SDS011;14507;52.418;13.398;2023-06-10T06:28:17;12.50;;;5.40;;
26951;SDS011;14507;52.418;13.398;2023-06-10T06:30:44;15.63;;;5.60;;
26951;SDS011;14507;52.418;13.398;2023-06-10T06:33:09;15.23;;;5.80;;
26951;SDS011;14507;52.418;13.398;2023-06-10T06:35:35;12.98;;;6.10;;
26951;SDS011;14507;52.418;13.398;2023-06-10T06:38:03;14.43;;;6.05;;
26951;SDS011;14507;52.418;13.398;2023-06-10T06:40:29;12.32;;;6.25;;
26951;SDS011;14507;52.418;13.398;2023-06-10T06:42:55;15.95;;;6.60;;
26951;SDS011;14507;52.418;13.398;2023-06-10T06:45:20;12.38;;;6.40;;
26951;SDS011;14507;52.418;13.398;2023-06-10T06:47:46;17.30;;;7.20;;
26951;SDS011;14507;52.418;13.398;2023-06-10T06:50:12;11.43;;;6.78;;
26951;SDS011;14507;52.418;13.398;2023-06-10T06:52:37;13.05;;;6.38;;
26951;SDS011;14507;52.418;13.398;2023-06-10T06:55:03;15.00;;;6.68;;
26951;SDS011;14507;52.418;13.398;2023-06-10T06:57:29;15.85;;;6.85;;
26951;SDS011;14507;52.418;13.398;2023-06-10T06:59:55;12.10;;;6.55;;
26951;SDS011;14507;52.418;13.398;2023-06-10T07:02:20;11.63;;;6.68;;
26951;SDS011;14507;52.418;13.398;2023-06-10T07:04:46;17.15;;;6.80;;
26951;SDS011;14507;52.418;13.398;2023-06-10T07:07:14;15.05;;;6.47;;
26951;SDS011;14507;52.418;13.398;2023-06-10T07:09:40;12.13;;;6.03;;
26951;SDS011;14507;52.418;13.398;2023-06-10T07:12:06;14.30;;;5.78;;
26951;SDS011;14507;52.418;13.398;2023-06-10T07:14:32;11.10;;;5.93;;
26951;SDS011;14507;52.418;13.398;2023-06-10T07:16:58;16.58;;;5.38;;
26951;SDS011;14507;52.418;13.398;2023-06-10T07:19:24;11.57;;;6.07;;
26951;SDS011;14507;52.418;13.398;2023-06-10T07:21:49;10.93;;;5.50;;
26951;SDS011;14507;52.418;13.398;2023-06-10T07:24:15;12.18;;;5.50;;
26951;SDS011;14507;52.418;13.398;2023-06-10T07:26:40;13.18;;;5.82;;
26951;SDS011;14507;52.418;13.398;2023-06-10T07:29:06;9.45;;;5.47;;
26951;SDS011;14507;52.418;13.398;2023-06-10T07:31:32;10.50;;;5.57;;
26951;SDS011;14507;52.418;13.398;2023-06-10T07:33:57;9.23;;;5.38;;
26951;SDS011;14507;52.418;13.398;2023-06-10T07:36:23;13.10;;;6.20;;
26951;SDS011;14507;52.418;13.398;2023-06-10T07:38:49;11.07;;;5.97;;
26951;SDS011;14507;52.418;13.398;2023-06-10T07:41:17;14.38;;;5.60;;
26951;SDS011;14507;52.418;13.398;2023-06-10T07:43:43;10.30;;;5.25;;
26951;SDS011;14507;52.418;13.398;2023-06-10T07:46:09;10.68;;;5.28;;
26951;SDS011;14507;52.418;13.398;2023-06-10T07:48:34;10.35;;;5.22;;
26951;SDS011;14507;52.418;13.398;2023-06-10T07:51:00;7.50;;;5.03;;
26951;SDS011;14507;52.418;13.398;2023-06-10T07:53:26;14.77;;;6.32;;
26951;SDS011;14507;52.418;13.398;2023-06-10T07:55:51;16.95;;;6.20;;
26951;SDS011;14507;52.418;13.398;2023-06-10T07:58:17;11.52;;;6.15;;
26951;SDS011;14507;52.418;13.398;2023-06-10T08:00:42;11.93;;;5.72;;
26951;SDS011;14507;52.418;13.398;2023-06-10T08:03:08;13.13;;;5.82;;
26951;SDS011;14507;52.418;13.398;2023-06-10T08:05:34;14.30;;;5.78;;
26951;SDS011;14507;52.418;13.398;2023-06-10T08:08:00;11.45;;;6.55;;
26951;SDS011;14507;52.418;13.398;2023-06-10T08:10:25;11.00;;;5.90;;
26951;SDS011;14507;52.418;13.398;2023-06-10T08:12:51;11.70;;;6.43;;
26951;SDS011;14507;52.418;13.398;2023-06-10T08:15:16;10.98;;;5.95;;
26951;SDS011;14507;52.418;13.398;2023-06-10T08:17:42;14.93;;;6.40;;
26951;SDS011;14507;52.418;13.398;2023-06-10T08:20:08;11.85;;;6.28;;
26951;SDS011;14507;52.418;13.398;2023-06-10T08:22:34;13.77;;;6.07;;
26951;SDS011;14507;52.418;13.398;2023-06-10T08:24:59;17.10;;;6.18;;
26951;SDS011;14507;52.418;13.398;2023-06-10T08:27:25;8.77;;;5.57;;
26951;SDS011;14507;52.418;13.398;2023-06-10T08:29:50;9.60;;;5.15;;
26951;SDS011;14507;52.418;13.398;2023-06-10T08:32:16;10.52;;;6.20;;
26951;SDS011;14507;52.418;13.398;2023-06-10T08:34:42;11.05;;;5.45;;
26951;SDS011;14507;52.418;13.398;2023-06-10T08:37:07;14.60;;;5.88;;
26951;SDS011;14507;52.418;13.398;2023-06-10T08:39:33;13.45;;;5.70;;
26951;SDS011;14507;52.418;13.398;2023-06-10T08:44:31;13.93;;;5.72;;
26951;SDS011;14507;52.418;13.398;2023-06-10T08:47:00;11.47;;;5.97;;
26951;SDS011;14507;52.418;13.398;2023-06-10T08:49:38;11.40;;;5.93;;
26951;SDS011;14507;52.418;13.398;2023-06-10T08:52:08;12.13;;;5.50;;
26951;SDS011;14507;52.418;13.398;2023-06-10T08:54:40;9.57;;;4.45;;
26951;SDS011;14507;52.418;13.398;2023-06-10T08:57:16;10.98;;;5.13;;
26951;SDS011;14507;52.418;13.398;2023-06-10T08:59:45;10.50;;;4.95;;
26951;SDS011;14507;52.418;13.398;2023-06-10T09:02:11;9.93;;;5.40;;
26951;SDS011;14507;52.418;13.398;2023-06-10T09:04:38;8.70;;;5.57;;
26951;SDS011;14507;52.418;13.398;2023-06-10T09:07:04;12.13;;;5.30;;
26951;SDS011;14507;52.418;13.398;2023-06-10T09:09:31;14.18;;;5.93;;
26951;SDS011;14507;52.418;13.398;2023-06-10T09:11:59;17.73;;;5.55;;
26951;SDS011;14507;52.418;13.398;2023-06-10T09:14:25;12.68;;;6.03;;
26951;SDS011;14507;52.418;13.398;2023-06-10T09:16:51;9.73;;;5.88;;
26951;SDS011;14507;52.418;13.398;2023-06-10T09:19:17;11.93;;;5.40;;
26951;SDS011;14507;52.418;13.398;2023-06-10T09:21:42;14.45;;;5.95;;
26951;SDS011;14507;52.418;13.398;2023-06-10T09:24:08;15.20;;;5.82;;
26951;SDS011;14507;52.418;13.398;2023-06-10T09:26:34;13.18;;;5.40;;
26951;SDS011;14507;52.418;13.398;2023-06-10T09:29:03;10.75;;;5.95;;
26951;SDS011;14507;52.418;13.398;2023-06-10T09:31:30;10.48;;;5.55;;
26951;SDS011;14507;52.418;13.398;2023-06-10T09:36:51;13.55;;;5.78;;
26951;SDS011;14507;52.418;13.398;2023-06-10T09:39:18;13.20;;;6.15;;
26951;SDS011;14507;52.418;13.398;2023-06-10T09:41:45;12.23;;;6.10;;
26951;SDS011;14507;52.418;13.398;2023-06-10T09:44:20;13.20;;;6.30;;
26951;SDS011;14507;52.418;13.398;2023-06-10T09:46:48;8.60;;;5.40;;
26951;SDS011;14507;52.418;13.398;2023-06-10T09:49:18;10.98;;;5.65;;
26951;SDS011;14507;52.418;13.398;2023-06-10T09:51:53;10.27;;;5.55;;
26951;SDS011;14507;52.418;13.398;2023-06-10T09:54:20;10.27;;;5.35;;
26951;SDS011;14507;52.418;13.398;2023-06-10T09:56:47;13.15;;;4.88;;
26951;SDS011;14507;52.418;13.398;2023-06-10T09:59:14;13.18;;;5.35;;
26951;SDS011;14507;52.418;13.398;2023-06-10T10:01:39;9.00;;;5.78;;
26951;SDS011;14507;52.418;13.398;2023-06-10T10:04:05;13.02;;;5.35;;
26951;SDS011;14507;52.418;13.398;2023-06-10T10:06:31;10.88;;;5.72;;
26951;SDS011;14507;52.418;13.398;2023-06-10T10:08:57;12.82;;;6.05;;
26951;SDS011;14507;52.418;13.398;2023-06-10T10:11:23;17.08;;;5.57;;
26951;SDS011;14507;52.418;13.398;2023-06-10T10:13:51;16.17;;;5.85;;
26951;SDS011;14507;52.418;13.398;2023-06-10T10:16:19;9.13;;;5.53;;
26951;SDS011;14507;52.418;13.398;2023-06-10T10:18:59;12.02;;;6.00;;
26951;SDS011;14507;52.418;13.398;2023-06-10T10:21:32;14.60;;;6.30;;
26951;SDS011;14507;52.418;13.398;2023-06-10T10:26:51;9.82;;;5.55;;
26951;SDS011;14507;52.418;13.398;2023-06-10T10:29:30;13.40;;;5.60;;
26951;SDS011;14507;52.418;13.398;2023-06-10T10:32:01;10.68;;;5.28;;
26951;SDS011;14507;52.418;13.398;2023-06-10T10:37:12;11.65;;;5.15;;
26951;SDS011;14507;52.418;13.398;2023-06-10T10:39:38;7.82;;;4.45;;
26951;SDS011;14507;52.418;13.398;2023-06-10T10:42:04;12.18;;;4.55;;
26951;SDS011;14507;52.418;13.398;2023-06-10T10:44:34;8.90;;;5.28;;
26951;SDS011;14507;52.418;13.398;2023-06-10T10:47:02;18.42;;;6.07;;
26951;SDS011;14507;52.418;13.398;2023-06-10T10:49:29;11.35;;;5.55;;
26951;SDS011;14507;52.418;13.398;2023-06-10T10:51:56;15.85;;;5.55;;
26951;SDS011;14507;52.418;13.398;2023-06-10T10:54:29;8.05;;;4.78;;
26951;SDS011;14507;52.418;13.398;2023-06-10T10:57:13;8.98;;;4.78;;
26951;SDS011;14507;52.418;13.398;2023-06-10T10:59:50;7.60;;;4.07;;
26951;SDS011;14507;52.418;13.398;2023-06-10T11:02:40;6.97;;;3.85;;
26951;SDS011;14507;52.418;13.398;2023-06-10T11:05:12;8.85;;;4.40;;
26951;SDS011;14507;52.418;13.398;2023-06-10T11:07:40;13.48;;;4.25;;
26951;SDS011;14507;52.418;13.398;2023-06-10T11:10:16;7.47;;;4.10;;
26951;SDS011;14507;52.418;13.398;2023-06-10T11:15:10;8.63;;;4.68;;
26951;SDS011;14507;52.418;13.398;2023-06-10T11:17:36;7.75;;;4.85;;
26951;SDS011;14507;52.418;13.398;2023-06-10T11:20:02;8.00;;;4.20;;
26951;SDS011;14507;52.418;13.398;2023-06-10T11:22:28;14.38;;;4.82;;
26951;SDS011;14507;52.418;13.398;2023-06-10T11:24:53;6.90;;;4.32;;
26951;SDS011;14507;52.418;13.398;2023-06-10T11:27:20;7.97;;;4.50;;
26951;SDS011;14507;52.418;13.398;2023-06-10T11:32:23;7.07;;;4.38;;
26951;SDS011;14507;52.418;13.398;2023-06-10T11:34:53;7.03;;;4.50;;
26951;SDS011;14507;52.418;13.398;2023-06-10T11:37:19;10.38;;;4.85;;
26951;SDS011;14507;52.418;13.398;2023-06-10T11:39:46;7.72;;;4.28;;
26951;SDS011;14507;52.418;13.398;2023-06-10T11:42:12;8.18;;;4.13;;
26951;SDS011;14507;52.418;13.398;2023-06-10T11:44:38;6.43;;;4.78;;
26951;SDS011;14507;52.418;13.398;2023-06-10T11:47:03;7.45;;;4.70;;
26951;SDS011;14507;52.418;13.398;2023-06-10T11:49:29;11.93;;;5.15;;
26951;SDS011;14507;52.418;13.398;2023-06-10T11:51:55;8.85;;;5.25;;
26951;SDS011;14507;52.418;13.398;2023-06-10T11:54:21;8.27;;;4.90;;
26951;SDS011;14507;52.418;13.398;2023-06-10T11:56:47;10.68;;;4.72;;
26951;SDS011;14507;52.418;13.398;2023-06-10T11:59:16;7.80;;;4.70;;
26951;SDS011;14507;52.418;13.398;2023-06-10T12:01:42;11.35;;;4.47;;
26951;SDS011;14507;52.418;13.398;2023-06-10T12:04:11;11.60;;;4.38;;
26951;SDS011;14507;52.418;13.398;2023-06-10T12:06:38;6.40;;;4.15;;
26951;SDS011;14507;52.418;13.398;2023-06-10T12:09:14;8.93;;;4.90;;
26951;SDS011;14507;52.418;13.398;2023-06-10T12:11:50;8.93;;;4.80;;
26951;SDS011;14507;52.418;13.398;2023-06-10T12:17:16;12.02;;;4.28;;
26951;SDS011;14507;52.418;13.398;2023-06-10T12:19:42;7.75;;;4.03;;
26951;SDS011;14507;52.418;13.398;2023-06-10T12:22:07;7.68;;;4.13;;
26951;SDS011;14507;52.418;13.398;2023-06-10T12:24:34;9.00;;;4.30;;
26951;SDS011;14507;52.418;13.398;2023-06-10T12:27:24;8.30;;;4.10;;
26951;SDS011;14507;52.418;13.398;2023-06-10T12:29:50;8.60;;;4.18;;
26951;SDS011;14507;52.418;13.398;2023-06-10T12:32:18;6.70;;;3.85;;
26951;SDS011;14507;52.418;13.398;2023-06-10T12:34:47;7.05;;;4.00;;
26951;SDS011;14507;52.418;13.398;2023-06-10T12:37:13;8.25;;;4.30;;
26951;SDS011;14507;52.418;13.398;2023-06-10T12:39:39;10.57;;;4.15;;
26951;SDS011;14507;52.418;13.398;2023-06-10T12:42:05;9.70;;;4.38;;
26951;SDS011;14507;52.418;13.398;2023-06-10T12:44:35;7.07;;;4.10;;
26951;SDS011;14507;52.418;13.398;2023-06-10T12:47:08;10.05;;;4.95;;
26951;SDS011;14507;52.418;13.398;2023-06-10T12:49:35;8.57;;;4.72;;
26951;SDS011;14507;52.418;13.398;2023-06-10T12:52:01;8.60;;;4.38;;
26951;SDS011;14507;52.418;13.398;2023-06-10T12:54:28;9.77;;;5.07;;
26951;SDS011;14507;52.418;13.398;2023-06-10T12:56:53;8.00;;;4.97;;
26951;SDS011;14507;52.418;13.398;2023-06-10T12:59:19;13.25;;;5.55;;
26951;SDS011;14507;52.418;13.398;2023-06-10T13:01:49;13.68;;;5.60;;
26951;SDS011;14507;52.418;13.398;2023-06-10T13:04:16;9.57;;;5.15;;
26951;SDS011;14507;52.418;13.398;2023-06-10T13:06:43;13.02;;;5.40;;
26951;SDS011;14507;52.418;13.398;2023-06-10T13:09:09;10.73;;;5.13;;
26951;SDS011;14507;52.418;13.398;2023-06-10T13:11:35;10.50;;;5.20;;
26951;SDS011;14507;52.418;13.398;2023-06-10T13:14:01;10.30;;;5.13;;
26951;SDS011;14507;52.418;13.398;2023-06-10T13:16:28;11.18;;;5.10;;
26951;SDS011;14507;52.418;13.398;2023-06-10T13:18:53;9.98;;;5.30;;
26951;SDS011;14507;52.418;13.398;2023-06-10T13:21:19;10.90;;;5.35;;
26951;SDS011;14507;52.418;13.398;2023-06-10T13:23:46;10.17;;;5.10;;
26951;SDS011;14507;52.418;13.398;2023-06-10T13:26:13;6.90;;;4.80;;
26951;SDS011;14507;52.418;13.398;2023-06-10T13:28:39;9.77;;;5.03;;
26951;SDS011;14507;52.418;13.398;2023-06-10T13:31:05;9.82;;;5.50;;
26951;SDS011;14507;52.418;13.398;2023-06-10T13:33:30;8.75;;;5.38;;
26951;SDS011;14507;52.418;13.398;2023-06-10T13:35:56;11.13;;;5.75;;
26951;SDS011;14507;52.418;13.398;2023-06-10T13:38:22;11.30;;;5.70;;
26951;SDS011;14507;52.418;13.398;2023-06-10T13:40:47;13.32;;;5.20;;
26951;SDS011;14507;52.418;13.398;2023-06-10T13:43:13;10.00;;;4.72;;
26951;SDS011;14507;52.418;13.398;2023-06-10T13:45:39;8.43;;;4.40;;
26951;SDS011;14507;52.418;13.398;2023-06-10T13:48:04;8.30;;;4.95;;
26951;SDS011;14507;52.418;13.398;2023-06-10T13:50:31;14.32;;;4.28;;
26951;SDS011;14507;52.418;13.398;2023-06-10T13:52:56;9.48;;;4.20;;
26951;SDS011;14507;52.418;13.398;2023-06-10T13:55:22;6.63;;;4.55;;
26951;SDS011;14507;52.418;13.398;2023-06-10T13:57:49;9.85;;;4.75;;
26951;SDS011;14507;52.418;13.398;2023-06-10T14:00:15;11.65;;;4.80;;
26951;SDS011;14507;52.418;13.398;2023-06-10T14:02:41;7.68;;;4.47;;
26951;SDS011;14507;52.418;13.398;2023-06-10T14:05:07;10.10;;;5.05;;
26951;SDS011;14507;52.418;13.398;2023-06-10T14:07:33;7.85;;;5.05;;
26951;SDS011;14507;52.418;13.398;2023-06-10T14:09:59;9.50;;;5.65;;
26951;SDS011;14507;52.418;13.398;2023-06-10T14:12:25;11.18;;;4.45;;
26951;SDS011;14507;52.418;13.398;2023-06-10T14:14:50;9.98;;;4.22;;
26951;SDS011;14507;52.418;13.398;2023-06-10T14:17:16;9.00;;;4.50;;
26951;SDS011;14507;52.418;13.398;2023-06-10T14:19:41;9.20;;;4.55;;
26951;SDS011;14507;52.418;13.398;2023-06-10T14:22:07;6.43;;;4.32;;
26951;SDS011;14507;52.418;13.398;2023-06-10T14:24:33;9.15;;;4.20;;
26951;SDS011;14507;52.418;13.398;2023-06-10T14:27:00;7.85;;;4.82;;
26951;SDS011;14507;52.418;13.398;2023-06-10T14:29:25;7.80;;;4.63;;
26951;SDS011;14507;52.418;13.398;2023-06-10T14:31:54;7.90;;;4.75;;
26951;SDS011;14507;52.418;13.398;2023-06-10T14:34:20;7.78;;;4.82;;
26951;SDS011;14507;52.418;13.398;2023-06-10T14:36:45;13.38;;;4.50;;
26951;SDS011;14507;52.418;13.398;2023-06-10T14:39:11;13.30;;;4.75;;
26951;SDS011;14507;52.418;13.398;2023-06-10T14:41:37;10.48;;;4.75;;
26951;SDS011;14507;52.418;13.398;2023-06-10T14:44:02;15.00;;;4.95;;
26951;SDS011;14507;52.418;13.398;2023-06-10T14:46:28;12.30;;;5.07;;
26951;SDS011;14507;52.418;13.398;2023-06-10T14:48:54;10.52;;;4.18;;
26951;SDS011;14507;52.418;13.398;2023-06-10T14:51:19;7.93;;;4.95;;